createdAt,value
2022-10-02T00:00:09.329Z,5.10
2022-10-02T00:03:21.579Z,4.90
2022-10-02T00:06:28.734Z,6.70
2022-10-02T00:09:42.863Z,9.32
2022-10-02T00:12:50.150Z,8.10
2022-10-02T00:15:54.407Z,9.32
2022-10-02T00:18:57.780Z,7.70
2022-10-02T00:22:50.902Z,7.55
2022-10-02T00:26:19.877Z,6.13
2022-10-02T00:29:24.459Z,5.75
2022-10-02T00:32:45.336Z,6.10
2022-10-02T00:36:01.716Z,5.03
2022-10-02T00:39:07.390Z,5.85
2022-10-02T00:42:37.977Z,5.15
2022-10-02T00:46:13.060Z,5.60
2022-10-02T00:49:18.995Z,5.93
2022-10-02T00:52:38.814Z,5.80
2022-10-02T00:56:01.120Z,6.20
2022-10-02T00:59:03.809Z,6.00
2022-10-02T01:02:44.661Z,5.22
2022-10-02T01:05:47.591Z,5.00
2022-10-02T01:08:52.238Z,4.90
2022-10-02T01:11:55.755Z,6.00
2022-10-02T01:14:58.413Z,5.82
2022-10-02T01:18:02.679Z,5.30
2022-10-02T01:21:14.555Z,5.53
2022-10-02T01:24:37.117Z,5.63
2022-10-02T01:27:40.362Z,5.68
2022-10-02T01:30:46.449Z,5.80
2022-10-02T01:33:49.946Z,5.30
2022-10-02T01:36:52.901Z,5.30
2022-10-02T01:40:02.115Z,4.90
2022-10-02T01:43:07.806Z,4.90
2022-10-02T01:46:13.455Z,5.57
2022-10-02T01:49:49.704Z,4.75
2022-10-02T01:53:02.880Z,5.18
2022-10-02T01:56:29.912Z,5.10
2022-10-02T01:59:54.449Z,4.70
2022-10-02T02:03:13.636Z,5.05
2022-10-02T02:07:02.918Z,5.03
2022-10-02T02:10:41.447Z,4.80
2022-10-02T02:14:03.032Z,5.27
2022-10-02T02:17:34.375Z,6.05
2022-10-02T02:20:44.834Z,5.30
2022-10-02T02:23:47.695Z,5.88
2022-10-02T02:26:53.498Z,6.38
2022-10-02T02:30:02.776Z,6.20
2022-10-02T02:33:10.799Z,7.20
2022-10-02T02:36:19.038Z,8.18
2022-10-02T02:39:47.722Z,9.13
2022-10-02T02:43:16.737Z,11.05
2022-10-02T02:46:25.519Z,9.60
2022-10-02T02:49:33.069Z,10.10
2022-10-02T02:53:11.241Z,8.95
2022-10-02T02:56:18.400Z,9.52
2022-10-02T02:59:27.083Z,8.90
2022-10-02T03:02:29.899Z,8.00
2022-10-02T03:05:35.066Z,7.93
2022-10-02T03:08:38.208Z,8.38
2022-10-02T03:11:53.223Z,8.60
2022-10-02T03:15:22.634Z,9.32
2022-10-02T03:18:32.199Z,8.70
2022-10-02T03:22:03.403Z,7.95
2022-10-02T03:25:09.131Z,7.70
2022-10-02T03:28:37.292Z,7.68
2022-10-02T03:31:44.482Z,8.25
2022-10-02T03:34:49.202Z,8.50
2022-10-02T03:37:57.282Z,8.95
2022-10-02T03:41:00.097Z,9.60
2022-10-02T03:44:02.749Z,9.75
2022-10-02T03:47:05.830Z,10.85
2022-10-02T03:50:09.381Z,9.57
2022-10-02T03:53:19.298Z,10.05
2022-10-02T03:56:41.051Z,12.63
2022-10-02T04:00:05.881Z,12.88
2022-10-02T04:03:21.708Z,15.52
2022-10-02T04:06:36.254Z,16.03
2022-10-02T04:09:56.309Z,14.50
2022-10-02T04:13:24.174Z,13.93
2022-10-02T04:16:35.835Z,14.18
2022-10-02T04:19:48.076Z,13.02
2022-10-02T04:22:57.031Z,12.30
2022-10-02T04:26:15.422Z,12.38
2022-10-02T04:29:28.652Z,11.10
2022-10-02T04:32:34.200Z,11.70
2022-10-02T04:35:48.998Z,10.50
2022-10-02T04:39:06.853Z,11.93
2022-10-02T04:42:38.792Z,12.15
2022-10-02T04:46:12.187Z,12.07
2022-10-02T04:49:45.795Z,11.50
2022-10-02T04:53:12.154Z,11.10
2022-10-02T04:56:55.843Z,11.40
2022-10-02T05:00:18.714Z,11.55
2022-10-02T05:03:43.893Z,11.00
2022-10-02T05:07:01.047Z,10.63
2022-10-02T05:10:40.515Z,11.50
2022-10-02T05:14:07.347Z,11.10
2022-10-02T05:17:42.320Z,9.75
2022-10-02T05:21:19.027Z,10.70
2022-10-02T05:24:40.438Z,10.98
2022-10-02T05:27:58.316Z,11.13
2022-10-02T05:31:35.993Z,9.43
2022-10-02T05:34:41.681Z,9.57
2022-10-02T05:37:53.606Z,10.35
2022-10-02T05:41:15.060Z,10.05
2022-10-02T05:44:26.961Z,9.43
2022-10-02T05:47:33.807Z,9.20
2022-10-02T05:50:38.201Z,9.02
2022-10-02T05:53:47.314Z,9.00
2022-10-02T05:57:03.306Z,8.60
2022-10-02T06:00:32.754Z,7.78
2022-10-02T06:03:49.242Z,7.23
2022-10-02T06:06:56.393Z,7.30
2022-10-02T06:10:16.331Z,9.65
2022-10-02T06:13:36.001Z,7.18
2022-10-02T06:16:57.943Z,7.90
2022-10-02T06:20:12.823Z,6.70
2022-10-02T06:23:22.565Z,6.90
2022-10-02T06:26:42.194Z,6.40
2022-10-02T06:29:57.932Z,6.15
2022-10-02T06:33:11.714Z,5.85
2022-10-02T06:36:21.488Z,5.90
2022-10-02T06:39:33.080Z,5.80
2022-10-02T06:42:49.589Z,5.55
2022-10-02T06:46:18.454Z,3.80
2022-10-02T06:49:37.550Z,2.90
2022-10-02T06:52:47.201Z,3.10
2022-10-02T06:56:02.130Z,3.47
2022-10-02T06:59:22.376Z,3.20
2022-10-02T07:02:25.167Z,3.10
2022-10-02T07:05:39.954Z,3.30
2022-10-02T07:09:19.353Z,2.93
2022-10-02T07:12:44.043Z,2.70
2022-10-02T07:16:11.024Z,2.60
2022-10-02T07:19:39.064Z,2.60
2022-10-02T07:22:55.302Z,2.75
2022-10-02T07:26:19.532Z,2.00
2022-10-02T07:29:41.175Z,1.90
2022-10-02T07:32:59.356Z,1.80
2022-10-02T07:36:23.656Z,1.10
2022-10-02T07:40:10.331Z,0.85
2022-10-02T07:43:27.959Z,1.00
2022-10-02T07:46:45.085Z,1.10
2022-10-02T07:49:56.319Z,1.10
2022-10-02T07:53:26.810Z,1.10
2022-10-02T07:56:30.723Z,1.10
2022-10-02T07:59:34.308Z,0.93
2022-10-02T08:02:43.228Z,1.55
2022-10-02T08:05:55.158Z,1.50
2022-10-02T08:09:07.229Z,1.30
2022-10-02T08:12:09.951Z,1.50
2022-10-02T08:15:17.849Z,1.10
2022-10-02T08:18:43.369Z,0.77
2022-10-02T08:21:50.219Z,1.13
2022-10-02T08:24:57.810Z,1.00
2022-10-02T08:28:04.041Z,1.00
2022-10-02T08:31:12.061Z,0.90
2022-10-02T08:34:21.183Z,1.00
2022-10-02T08:37:39.302Z,1.08
2022-10-02T08:40:57.129Z,0.95
2022-10-02T08:44:22.819Z,1.10
2022-10-02T08:47:54.637Z,0.90
2022-10-02T08:51:08.574Z,0.77
2022-10-02T08:54:33.005Z,0.90
2022-10-02T08:58:11.060Z,1.10
2022-10-02T09:01:46.739Z,1.10
2022-10-02T09:05:26.723Z,1.20
2022-10-02T09:09:07.657Z,1.00
2022-10-02T09:12:25.863Z,1.27
2022-10-02T09:15:42.938Z,1.00
2022-10-02T09:18:55.394Z,1.08
2022-10-02T09:22:23.105Z,1.00
2022-10-02T09:25:47.135Z,0.98
2022-10-02T09:29:24.037Z,1.10
2022-10-02T09:32:58.909Z,1.00
2022-10-02T09:36:32.541Z,0.90
2022-10-02T09:40:01.889Z,1.47
2022-10-02T09:43:14.476Z,1.10
2022-10-02T09:46:43.278Z,1.30
2022-10-02T09:50:30.350Z,1.30
2022-10-02T09:54:09.934Z,0.80
2022-10-02T09:57:31.910Z,1.03
2022-10-02T10:00:55.243Z,1.67
2022-10-02T10:05:01.287Z,1.25
2022-10-02T10:08:23.575Z,1.00
2022-10-02T10:12:03.227Z,0.90
2022-10-02T10:15:46.560Z,0.67
2022-10-02T10:19:25.750Z,0.60
2022-10-02T10:22:34.209Z,0.73
2022-10-02T10:25:50.417Z,0.80
2022-10-02T10:29:27.222Z,0.82
2022-10-02T10:32:48.287Z,1.07
2022-10-02T10:36:00.037Z,0.80
2022-10-02T10:39:40.297Z,0.70
2022-10-02T10:43:21.434Z,0.77
2022-10-02T10:46:37.312Z,0.85
2022-10-02T10:50:07.663Z,0.90
2022-10-02T10:53:40.612Z,0.90
2022-10-02T10:56:56.884Z,1.08
2022-10-02T11:00:20.400Z,1.33
2022-10-02T11:04:13.668Z,0.90
2022-10-02T11:07:26.638Z,1.40
2022-10-02T11:10:35.203Z,1.00
2022-10-02T11:13:48.986Z,0.95
2022-10-02T11:17:09.587Z,0.90
2022-10-02T11:20:35.067Z,0.98
2022-10-02T11:23:46.760Z,0.90
2022-10-02T11:27:19.050Z,0.70
2022-10-02T11:30:25.471Z,0.90
2022-10-02T11:34:02.070Z,0.80
2022-10-02T11:37:14.343Z,1.00
2022-10-02T11:40:32.371Z,0.77
2022-10-02T11:43:52.901Z,0.80
2022-10-02T11:47:14.495Z,1.00
2022-10-02T11:50:52.375Z,0.80
2022-10-02T11:54:27.440Z,0.80
2022-10-02T11:58:03.204Z,0.70
2022-10-02T12:01:05.986Z,0.70
2022-10-02T12:04:40.922Z,0.50
2022-10-02T12:08:11.475Z,0.70
2022-10-02T12:11:26.958Z,0.70
2022-10-02T12:14:55.688Z,2.57
2022-10-02T12:18:25.938Z,0.70
2022-10-02T12:21:46.813Z,0.82
2022-10-02T12:25:45.861Z,0.80
2022-10-02T12:29:02.858Z,0.60
2022-10-02T12:32:39.268Z,0.73
2022-10-02T12:35:57.197Z,0.50
2022-10-02T12:39:24.711Z,0.70
2022-10-02T12:42:49.349Z,0.50
2022-10-02T12:46:01.316Z,0.55
2022-10-02T12:49:22.060Z,0.80
2022-10-02T12:52:34.595Z,0.70
2022-10-02T12:56:01.538Z,0.80
2022-10-02T12:59:22.750Z,0.95
2022-10-02T13:03:06.842Z,1.00
2022-10-02T13:06:29.793Z,0.57
2022-10-02T13:09:39.068Z,0.85
2022-10-02T13:13:09.850Z,1.02
2022-10-02T13:16:34.366Z,0.50
2022-10-02T13:20:01.145Z,0.60
2022-10-02T13:23:16.383Z,0.80
2022-10-02T13:26:52.047Z,0.60
2022-10-02T13:29:58.618Z,0.80
2022-10-02T13:33:25.260Z,0.90
2022-10-02T13:36:35.270Z,0.88
2022-10-02T13:39:46.966Z,1.10
2022-10-02T13:42:49.591Z,1.35
2022-10-02T13:45:57.383Z,1.23
2022-10-02T13:49:28.996Z,1.10
2022-10-02T13:52:46.714Z,0.90
2022-10-02T13:56:02.839Z,0.90
2022-10-02T13:59:25.956Z,0.80
2022-10-02T14:02:39.728Z,0.80
2022-10-02T14:05:52.441Z,1.10
2022-10-02T14:09:10.693Z,0.90
2022-10-02T14:12:26.093Z,1.10
2022-10-02T14:15:55.654Z,0.90
2022-10-02T14:19:08.090Z,1.00
2022-10-02T14:22:55.449Z,0.98
2022-10-02T14:26:08.634Z,1.48
2022-10-02T14:29:35.143Z,1.07
2022-10-02T14:32:40.753Z,1.30
2022-10-02T14:36:15.771Z,1.70
2022-10-02T14:39:39.648Z,1.77
2022-10-02T14:43:02.289Z,1.02
2022-10-02T14:46:59.559Z,0.90
2022-10-02T14:50:23.450Z,1.17
2022-10-02T14:53:50.571Z,1.30
2022-10-02T14:57:08.197Z,0.93
2022-10-02T15:00:24.901Z,2.13
2022-10-02T15:03:43.695Z,1.30
2022-10-02T15:06:59.018Z,2.20
2022-10-02T15:10:07.917Z,2.10
2022-10-02T15:13:24.686Z,1.40
2022-10-02T15:16:59.480Z,2.50
2022-10-02T15:20:26.319Z,1.70
2022-10-02T15:23:45.669Z,1.80
2022-10-02T15:27:01.583Z,2.03
2022-10-02T15:30:17.918Z,1.42
2022-10-02T15:33:32.009Z,1.50
2022-10-02T15:36:34.668Z,1.27
2022-10-02T15:39:51.310Z,1.27
2022-10-02T15:42:59.277Z,1.48
2022-10-02T15:46:14.500Z,1.73
2022-10-02T15:49:34.049Z,2.00
2022-10-02T15:53:05.963Z,2.00
2022-10-02T15:56:17.636Z,1.55
2022-10-02T15:59:23.474Z,1.60
2022-10-02T16:02:51.416Z,1.65
2022-10-02T16:06:13.598Z,1.73
2022-10-02T16:09:43.587Z,7.50
2022-10-02T16:13:14.122Z,10.13
2022-10-02T16:16:48.592Z,6.35
2022-10-02T16:20:02.662Z,9.48
2022-10-02T16:23:30.343Z,6.45
2022-10-02T16:27:00.779Z,6.37
2022-10-02T16:30:17.746Z,15.43
2022-10-02T16:33:26.603Z,17.45
2022-10-02T16:36:38.270Z,15.45
2022-10-02T16:40:19.977Z,15.93
2022-10-02T16:43:41.471Z,19.53
2022-10-02T16:46:54.222Z,7.80
2022-10-02T16:50:13.080Z,3.08
2022-10-02T16:53:26.380Z,4.10
2022-10-02T16:56:40.705Z,4.30
2022-10-02T16:59:51.811Z,1.50
2022-10-02T17:03:28.981Z,1.45
2022-10-02T17:06:40.063Z,1.70
2022-10-02T17:09:47.882Z,1.83
2022-10-02T17:13:01.289Z,1.80
2022-10-02T17:16:21.099Z,1.93
2022-10-02T17:19:27.856Z,1.90
2022-10-02T17:22:42.868Z,2.25
2022-10-02T17:26:06.010Z,2.30
2022-10-02T17:29:25.555Z,1.90
2022-10-02T17:32:46.577Z,1.87
2022-10-02T17:35:54.914Z,2.30
2022-10-02T17:39:21.541Z,5.53
2022-10-02T17:42:47.302Z,6.15
2022-10-02T17:46:24.308Z,7.75
2022-10-02T17:49:33.091Z,6.90
2022-10-02T17:53:05.159Z,9.05
2022-10-02T17:56:29.567Z,14.35
2022-10-02T17:59:48.465Z,15.57
2022-10-02T18:02:51.160Z,16.52
2022-10-02T18:06:05.318Z,16.07
2022-10-02T18:09:17.211Z,16.88
2022-10-02T18:12:57.929Z,17.90
2022-10-02T18:16:09.519Z,11.60
2022-10-02T18:19:36.703Z,5.72
2022-10-02T18:22:52.340Z,6.23
2022-10-02T18:26:33.415Z,10.15
2022-10-02T18:29:55.485Z,12.00
2022-10-02T18:33:10.440Z,13.38
2022-10-02T18:36:29.124Z,13.40
2022-10-02T18:40:07.371Z,11.90
2022-10-02T18:43:28.901Z,10.18
2022-10-02T18:47:08.074Z,9.68
2022-10-02T18:50:39.713Z,7.50
2022-10-02T18:53:56.961Z,6.07
2022-10-02T18:57:25.202Z,6.23
2022-10-02T19:00:59.647Z,5.88
2022-10-02T19:04:45.631Z,5.88
2022-10-02T19:08:10.604Z,4.00
2022-10-02T19:11:18.605Z,4.20
2022-10-02T19:14:34.405Z,4.20
2022-10-02T19:17:37.206Z,4.13
2022-10-02T19:20:40.343Z,5.40
2022-10-02T19:24:02.672Z,4.90
2022-10-02T19:27:13.695Z,5.85
2022-10-02T19:30:26.326Z,5.53
2022-10-02T19:33:49.897Z,4.60
2022-10-02T19:36:57.233Z,4.30
2022-10-02T19:40:03.984Z,4.10
2022-10-02T19:43:08.665Z,3.45
2022-10-02T19:46:12.662Z,2.70
2022-10-02T19:49:22.770Z,2.67
2022-10-02T19:52:35.936Z,2.92
2022-10-02T19:55:42.573Z,2.75
2022-10-02T19:58:58.702Z,2.45
2022-10-02T20:02:13.201Z,2.60
2022-10-02T20:05:22.044Z,2.60
2022-10-02T20:08:36.893Z,2.85
2022-10-02T20:11:46.586Z,2.83
2022-10-02T20:15:14.725Z,2.67
2022-10-02T20:18:17.713Z,2.50
2022-10-02T20:21:48.746Z,2.30
2022-10-02T20:25:14.833Z,2.95
2022-10-02T20:28:29.705Z,2.70
2022-10-02T20:31:56.757Z,2.53
2022-10-02T20:35:08.874Z,2.67
2022-10-02T20:38:21.311Z,2.97
2022-10-02T20:41:29.798Z,2.92
2022-10-02T20:44:36.660Z,3.13
2022-10-02T20:47:57.580Z,3.10
2022-10-02T20:51:09.214Z,3.17
2022-10-02T20:54:36.024Z,3.58
2022-10-02T20:58:29.622Z,2.90
2022-10-02T21:02:04.669Z,3.17
2022-10-02T21:05:35.472Z,3.30
2022-10-02T21:09:03.190Z,3.33
2022-10-02T21:12:27.630Z,3.40
2022-10-02T21:15:55.414Z,3.35
2022-10-02T21:19:22.343Z,3.00
2022-10-02T21:22:43.380Z,2.50
2022-10-02T21:26:09.798Z,2.33
2022-10-02T21:29:32.199Z,2.22
2022-10-02T21:32:34.848Z,2.78
2022-10-02T21:35:51.766Z,2.67
2022-10-02T21:39:36.496Z,3.08
2022-10-02T21:43:17.799Z,2.83
2022-10-02T21:46:54.825Z,2.75
2022-10-02T21:50:40.741Z,2.92
2022-10-02T21:54:27.745Z,3.20
2022-10-02T21:58:08.752Z,3.22
2022-10-02T22:02:07.323Z,3.50
2022-10-02T22:05:31.741Z,3.75
2022-10-02T22:08:40.519Z,3.53
2022-10-02T22:12:07.583Z,3.95
2022-10-02T22:15:16.272Z,4.30
2022-10-02T22:18:45.361Z,4.07
2022-10-02T22:22:03.503Z,4.53
2022-10-02T22:25:09.240Z,4.35
2022-10-02T22:28:35.369Z,3.90
2022-10-02T22:32:19.247Z,3.80
2022-10-02T22:35:49.661Z,3.20
2022-10-02T22:39:20.605Z,2.63
2022-10-02T22:42:37.753Z,3.13
2022-10-02T22:45:50.720Z,3.22
2022-10-02T22:49:10.552Z,3.38
2022-10-02T22:52:24.345Z,3.57
2022-10-02T22:55:32.203Z,3.17
2022-10-02T22:58:42.083Z,2.75
2022-10-02T23:01:57.089Z,2.38
2022-10-02T23:05:24.561Z,2.20
2022-10-02T23:08:30.368Z,2.17
2022-10-02T23:11:42.986Z,2.50
2022-10-02T23:15:05.644Z,2.58
2022-10-02T23:18:32.057Z,3.08
2022-10-02T23:22:01.183Z,3.10
2022-10-02T23:25:29.819Z,2.80
2022-10-02T23:28:35.684Z,2.75
2022-10-02T23:32:04.901Z,2.00
2022-10-02T23:35:30.368Z,1.88
2022-10-02T23:39:00.881Z,1.98
2022-10-02T23:42:09.574Z,2.17
2022-10-02T23:45:26.205Z,2.08
2022-10-02T23:48:30.308Z,2.13
2022-10-02T23:52:06.505Z,1.70
2022-10-02T23:55:30.901Z,2.30
2022-10-02T23:58:56.908Z,1.80
